Time;durP1;ratioP1;P1;durP2;ratioP2;P2;SDS_P1;SDS_P2;PMS_P1;PMS_P2;Temp;Humidity;BMP_temperature;BMP_pressure;BME280_temperature;BME280_humidity;BME280_pressure;Samples;Min_cycle;Max_cycle;Signal;HPM_P1;HPM_P2
2023/03/06 00:02:13;;;;;;;26.27;11.33;;;;;;;4.51;64.87;94571.66;5001590;28;20230;-69
2023/03/06 00:04:39;;;;;;;24.50;10.90;;;;;;;4.36;65.79;94568.16;4986453;28;20269;-68
2023/03/06 00:07:04;;;;;;;24.30;11.27;;;;;;;4.50;65.38;94570.03;5002706;28;20238;-68
2023/03/06 00:09:30;;;;;;;21.93;10.80;;;;;;;4.52;65.07;94568.06;4986796;28;20242;-69
2023/03/06 00:11:55;;;;;;;23.47;11.03;;;;;;;4.55;65.18;94575.50;4986907;28;20246;-69
2023/03/06 00:14:21;;;;;;;24.63;11.87;;;;;;;4.57;64.98;94574.34;5002156;28;20844;-68
2023/03/06 00:16:46;;;;;;;21.77;11.03;;;;;;;4.68;65.05;94573.16;4986343;28;20230;-69
2023/03/06 00:19:12;;;;;;;25.13;11.33;;;;;;;4.47;65.46;94565.97;4983847;28;20245;-69
2023/03/06 00:21:42;;;;;;;24.17;10.97;;;;;;;4.56;65.02;94569.34;4982768;28;20219;-69
2023/03/06 00:24:07;;;;;;;27.40;12.07;;;;;;;4.59;65.04;94568.97;5002868;28;20238;-69
2023/03/06 00:26:34;;;;;;;26.40;11.77;;;;;;;4.55;64.73;94568.53;4988679;28;20318;-68
2023/03/06 00:29:00;;;;;;;23.53;11.77;;;;;;;4.64;65.18;94564.09;5004562;28;20245;-69
2023/03/06 00:31:25;;;;;;;27.23;11.90;;;;;;;4.58;65.32;94572.56;4968415;28;20689;-68
2023/03/06 00:33:51;;;;;;;26.60;11.97;;;;;;;4.51;66.04;94569.88;4980491;28;20246;-68
2023/03/06 00:36:16;;;;;;;24.20;11.30;;;;;;;4.52;65.44;94568.06;4983060;28;20230;-69
2023/03/06 00:38:42;;;;;;;22.77;11.20;;;;;;;4.62;65.25;94566.88;4987584;28;20230;-69
2023/03/06 00:41:09;;;;;;;24.30;11.70;;;;;;;4.53;65.52;94567.91;5002486;28;20226;-69
2023/03/06 00:43:34;;;;;;;25.97;11.43;;;;;;;4.52;64.73;94565.47;4980725;28;20637;-69
2023/03/06 00:46:00;;;;;;;24.40;11.43;;;;;;;4.46;65.40;94560.97;5018659;28;20235;-68
2023/03/06 00:48:25;;;;;;;23.97;11.07;;;;;;;4.51;65.16;94566.47;4970373;28;20226;-68
2023/03/06 00:50:51;;;;;;;23.97;11.00;;;;;;;4.64;64.01;94569.28;4980623;28;20230;-68
2023/03/06 00:53:16;;;;;;;28.97;11.63;;;;;;;4.69;64.23;94569.56;4985811;28;20242;-68
2023/03/06 00:55:45;;;;;;;28.30;11.47;;;;;;;4.70;64.32;94563.41;4970004;28;20227;-68
2023/03/06 00:58:11;;;;;;;27.80;11.40;;;;;;;4.85;63.39;94563.47;4985353;28;20669;-68
2023/03/06 01:00:36;;;;;;;24.73;11.27;;;;;;;4.91;63.75;94555.81;4969868;28;20226;-68
2023/03/06 01:03:02;;;;;;;24.27;11.37;;;;;;;4.74;64.39;94560.31;4969052;28;20238;-69
2023/03/06 01:05:27;;;;;;;26.70;11.40;;;;;;;4.81;63.80;94557.81;4968964;28;20219;-68
2023/03/06 01:07:53;;;;;;;24.73;11.10;;;;;;;4.68;64.28;94553.22;4970261;28;20239;-68
2023/03/06 01:10:18;;;;;;;24.80;11.23;;;;;;;4.80;64.54;94548.44;4984925;28;20296;-69
2023/03/06 01:12:44;;;;;;;25.53;11.87;;;;;;;4.79;63.73;94554.59;5003194;28;20774;-69
2023/03/06 01:15:10;;;;;;;24.37;11.30;;;;;;;4.79;64.01;94549.41;4969195;28;20238;-68
2023/03/06 01:17:35;;;;;;;28.30;11.77;;;;;;;4.79;63.80;94549.41;4969885;28;20235;-68
2023/03/06 01:20:01;;;;;;;24.53;11.70;;;;;;;4.74;64.01;94551.72;4973993;28;20231;-68
2023/03/06 01:22:26;;;;;;;23.53;10.93;;;;;;;4.58;63.77;94555.25;4982290;28;20229;-68
2023/03/06 01:24:52;;;;;;;22.90;11.23;;;;;;;4.65;64.27;94552.75;4999734;28;20234;-68
2023/03/06 01:27:18;;;;;;;24.77;11.93;;;;;;;4.59;64.30;94559.44;4982930;28;20257;-69
2023/03/06 01:29:43;;;;;;;21.90;11.33;;;;;;;4.53;64.02;94549.78;4997919;28;20235;-70
2023/03/06 01:32:09;;;;;;;23.10;11.87;;;;;;;4.40;65.82;94549.50;4982326;28;20242;-69
2023/03/06 01:34:34;;;;;;;24.70;11.07;;;;;;;4.34;65.59;94549.41;4982485;28;20907;-69
2023/03/06 01:37:00;;;;;;;27.33;11.27;;;;;;;4.41;65.36;94542.56;4979226;28;20877;-70
2023/03/06 01:39:27;;;;;;;28.00;11.20;;;;;;;4.34;64.96;94549.41;4971194;28;21177;-70
2023/03/06 01:41:52;;;;;;;22.07;11.10;;;;;;;4.29;65.53;94541.31;4971292;28;20257;-70
2023/03/06 01:44:18;;;;;;;22.10;10.70;;;;;;;4.52;65.13;94549.91;4979659;28;20243;-68
2023/03/06 01:46:44;;;;;;;25.97;11.77;;;;;;;4.47;64.67;94549.63;4966972;28;20711;-68
2023/03/06 01:49:37;;;;;;;23.07;10.80;;;;;;;4.50;65.18;94541.53;4964436;28;20239;-69
2023/03/06 01:52:03;;;;;;;25.23;11.27;;;;;;;4.24;65.95;94539.25;4990668;28;20265;-70
2023/03/06 01:54:33;;;;;;;25.00;11.20;;;;;;;4.33;65.35;94545.19;4969127;28;20238;-69
2023/03/06 01:57:04;;;;;;;25.27;11.50;;;;;;;4.19;66.14;94549.31;4991907;28;20229;-70
2023/03/06 01:59:29;;;;;;;21.07;10.47;;;;;;;4.20;66.33;94548.34;4982428;28;20593;-69
2023/03/06 02:01:55;;;;;;;23.67;11.40;;;;;;;4.21;66.06;94549.94;5000736;28;20245;-70
2023/03/06 02:04:21;;;;;;;25.03;11.53;;;;;;;3.85;70.21;94544.44;4983984;28;21834;-69
2023/03/06 02:06:46;;;;;;;28.00;12.07;;;;;;;3.71;70.79;94541.75;4981209;28;20226;-70
2023/03/06 02:09:12;;;;;;;24.50;11.80;;;;;;;3.85;70.11;94543.63;4981953;28;21011;-70
2023/03/06 02:11:37;;;;;;;24.40;11.60;;;;;;;3.91;68.84;94543.78;4969465;28;20283;-69
2023/03/06 02:14:03;;;;;;;25.83;11.03;;;;;;;4.04;68.34;94548.41;4952098;28;20245;-70
2023/03/06 02:16:29;;;;;;;25.67;11.27;;;;;;;3.86;70.04;94545.25;4995132;28;20238;-69
2023/03/06 02:18:55;;;;;;;25.43;11.43;;;;;;;3.79;70.15;94547.72;4968115;28;20227;-69
2023/03/06 02:21:33;;;;;;;25.77;11.43;;;;;;;3.71;70.37;94546.91;4983040;28;20235;-69
2023/03/06 02:24:19;;;;;;;23.27;11.63;;;;;;;3.65;71.31;94555.34;4982949;28;20243;-68
2023/03/06 02:26:45;;;;;;;26.53;11.63;;;;;;;3.58;72.49;94549.25;4995038;28;20325;-67
2023/03/06 02:29:11;;;;;;;23.27;11.67;;;;;;;3.46;71.39;94553.16;4963970;28;20446;-68
2023/03/06 02:31:36;;;;;;;27.33;12.27;;;;;;;3.75;71.60;94543.03;4976055;28;20789;-68
2023/03/06 02:34:12;;;;;;;24.77;11.70;;;;;;;3.72;71.11;94553.72;4984627;28;20281;-70
2023/03/06 02:36:41;;;;;;;24.70;11.63;;;;;;;3.67;70.27;94550.81;4987770;28;20238;-69
2023/03/06 02:39:06;;;;;;;27.23;12.03;;;;;;;3.60;71.70;94555.88;4987983;28;20246;-69
2023/03/06 02:41:32;;;;;;;27.70;12.40;;;;;;;3.69;71.14;94562.63;4987662;28;20246;-69
2023/03/06 02:43:57;;;;;;;23.97;12.13;;;;;;;3.43;71.75;94559.47;4987035;28;20230;-68
2023/03/06 02:46:23;;;;;;;26.17;12.23;;;;;;;3.41;71.84;94556.22;4996178;28;20238;-69
2023/03/06 02:48:48;;;;;;;24.70;11.97;;;;;;;3.33;71.86;94569.97;4983122;28;20222;-69
2023/03/06 02:51:13;;;;;;;27.53;12.20;;;;;;;3.49;72.50;94568.34;4995731;28;20638;-69
2023/03/06 02:53:39;;;;;;;26.10;12.30;;;;;;;3.52;73.74;94565.41;4986814;28;20240;-68
2023/03/06 02:56:05;;;;;;;24.97;11.87;;;;;;;3.22;73.57;94560.00;4970831;28;20231;-69
2023/03/06 02:58:30;;;;;;;25.90;11.90;;;;;;;3.11;74.67;94560.31;4972646;28;20593;-69
2023/03/06 03:00:56;;;;;;;25.07;11.93;;;;;;;2.81;75.26;94558.38;4989370;28;20223;-68
2023/03/06 03:03:21;;;;;;;25.50;12.10;;;;;;;3.05;75.24;94560.97;4973185;28;20722;-68
2023/03/06 03:05:47;;;;;;;26.73;12.33;;;;;;;3.13;74.28;94560.16;5006749;28;20314;-67
2023/03/06 03:08:12;;;;;;;22.57;12.07;;;;;;;2.98;75.01;94564.34;4987549;28;20720;-69
2023/03/06 03:10:38;;;;;;;26.00;12.10;;;;;;;2.81;75.99;94563.56;5005631;28;20227;-68
2023/03/06 03:13:03;;;;;;;24.83;12.17;;;;;;;2.93;75.57;94566.63;4986992;28;20238;-68
2023/03/06 03:15:29;;;;;;;25.70;12.40;;;;;;;2.93;76.83;94564.03;4974574;28;20253;-69
2023/03/06 03:17:54;;;;;;;27.67;12.80;;;;;;;2.84;76.56;94570.19;4979036;28;20241;-69
2023/03/06 03:20:20;;;;;;;27.27;12.67;;;;;;;2.66;77.60;94562.56;4977017;28;20230;-69
2023/03/06 03:22:51;;;;;;;25.30;12.37;;;;;;;2.65;77.73;94566.13;4992996;28;20272;-68
2023/03/06 03:25:17;;;;;;;26.43;12.47;;;;;;;2.64;77.07;94565.31;4992234;28;20234;-68
2023/03/06 03:27:42;;;;;;;29.57;12.87;;;;;;;2.81;77.29;94562.75;4963211;28;20316;-69
2023/03/06 03:30:08;;;;;;;27.83;13.10;;;;;;;2.57;77.72;94566.94;4993339;28;20223;-68
2023/03/06 03:32:34;;;;;;;26.40;12.50;;;;;;;2.75;78.15;94563.41;4991957;28;20333;-68
2023/03/06 03:34:59;;;;;;;30.37;13.10;;;;;;;2.83;76.63;94564.19;4975567;28;20234;-69
2023/03/06 03:37:25;;;;;;;29.43;12.90;;;;;;;2.59;78.47;94559.81;4978202;28;20227;-68
2023/03/06 03:39:51;;;;;;;25.97;12.23;;;;;;;2.68;77.86;94568.38;4977186;28;20234;-68
2023/03/06 03:42:16;;;;;;;25.97;12.27;;;;;;;2.64;78.02;94561.94;4974897;28;20234;-68
2023/03/06 03:44:41;;;;;;;29.50;12.77;;;;;;;2.57;77.78;94569.50;4960154;28;20227;-68
2023/03/06 03:47:07;;;;;;;28.97;12.90;;;;;;;2.39;78.74;94568.03;4979794;28;20243;-69
2023/03/06 03:49:32;;;;;;;27.17;12.37;;;;;;;2.44;78.78;94571.75;4990777;28;20285;-67
2023/03/06 03:51:58;;;;;;;28.73;11.97;;;;;;;2.49;78.08;94574.66;4975267;28;20266;-69
2023/03/06 03:54:23;;;;;;;28.87;12.53;;;;;;;2.50;78.27;94578.88;4990777;28;20355;-69
2023/03/06 03:56:49;;;;;;;27.23;13.10;;;;;;;2.40;78.46;94582.53;4965782;28;20245;-69
2023/03/06 03:59:14;;;;;;;26.90;12.60;;;;;;;2.40;78.70;94590.28;4992370;28;20254;-69
2023/03/06 04:01:40;;;;;;;25.77;12.33;;;;;;;2.61;78.49;94582.91;4959646;28;20368;-68
2023/03/06 04:04:05;;;;;;;26.33;12.40;;;;;;;2.62;76.87;94584.53;4958328;28;20234;-68
2023/03/06 04:06:31;;;;;;;27.60;12.63;;;;;;;2.68;77.61;94589.84;4975471;28;20226;-67
2023/03/06 04:08:56;;;;;;;27.03;12.97;;;;;;;2.73;76.96;94597.13;4990028;28;20241;-70
2023/03/06 04:11:22;;;;;;;26.00;11.90;;;;;;;2.94;76.04;94591.50;4974253;28;20300;-68
2023/03/06 04:13:47;;;;;;;22.17;11.23;;;;;;;2.83;76.66;94591.81;4977995;28;20234;-68
2023/03/06 04:16:13;;;;;;;26.83;12.53;;;;;;;2.90;75.19;94592.78;4992820;28;20239;-66
2023/03/06 04:18:38;;;;;;;26.27;11.63;;;;;;;2.89;75.16;94599.72;4975227;28;21047;-67
2023/03/06 04:21:04;;;;;;;24.50;12.33;;;;;;;2.87;74.81;94599.06;4990986;28;20222;-68
2023/03/06 04:23:29;;;;;;;24.37;11.77;;;;;;;3.00;74.29;94604.59;4976062;28;20230;-68
2023/03/06 04:25:55;;;;;;;24.77;12.23;;;;;;;2.92;75.45;94601.16;4976483;28;20747;-68
2023/03/06 04:28:20;;;;;;;27.53;12.87;;;;;;;2.89;75.51;94598.94;4994537;28;21088;-67
2023/03/06 04:30:46;;;;;;;27.77;11.87;;;;;;;2.79;77.02;94601.66;4986379;28;20228;-68
2023/03/06 04:33:11;;;;;;;27.17;12.43;;;;;;;2.83;75.74;94605.53;4977285;28;20234;-67
2023/03/06 04:35:37;;;;;;;26.73;12.30;;;;;;;2.91;75.07;94604.75;4982182;28;20233;-68
2023/03/06 04:38:03;;;;;;;27.07;12.47;;;;;;;2.83;76.65;94600.38;4986765;28;20279;-69
2023/03/06 04:40:30;;;;;;;26.47;12.33;;;;;;;3.25;74.31;94595.84;4966085;28;20234;-68
2023/03/06 04:42:56;;;;;;;27.07;12.63;;;;;;;3.16;75.22;94614.09;4988803;28;20238;-68
2023/03/06 04:45:21;;;;;;;26.50;12.53;;;;;;;3.19;75.15;94613.78;4987787;28;20832;-69
2023/03/06 04:47:47;;;;;;;27.00;12.50;;;;;;;3.27;74.23;94609.41;4989516;28;20233;-69
2023/03/06 04:50:12;;;;;;;27.47;12.93;;;;;;;3.33;74.68;94600.19;4998651;28;20325;-68
2023/03/06 04:52:39;;;;;;;26.23;12.10;;;;;;;3.46;73.60;94616.03;4991016;28;20222;-68
2023/03/06 04:55:07;;;;;;;28.80;13.13;;;;;;;3.57;74.51;94620.03;4982136;28;20244;-69
2023/03/06 04:57:36;;;;;;;26.90;12.87;;;;;;;3.47;74.88;94614.22;4998011;28;20241;-69
2023/03/06 05:00:04;;;;;;;26.00;12.33;;;;;;;3.56;73.46;94613.28;4984304;28;20226;-69
2023/03/06 05:02:29;;;;;;;26.93;12.40;;;;;;;3.40;73.91;94614.91;4996992;28;20304;-67
2023/03/06 05:04:55;;;;;;;26.83;12.60;;;;;;;3.47;73.13;94611.66;5023702;28;20739;-67
2023/03/06 05:07:20;;;;;;;25.70;12.70;;;;;;;3.42;73.60;94617.31;5000190;28;20234;-68
2023/03/06 05:09:46;;;;;;;24.57;11.97;;;;;;;3.26;74.06;94609.59;4992253;28;20234;-68
2023/03/06 05:12:11;;;;;;;31.27;13.27;;;;;;;3.20;74.53;94612.84;4989966;28;20238;-69
2023/03/06 05:14:37;;;;;;;30.53;12.87;;;;;;;3.27;74.26;94618.97;5023484;28;20234;-68
2023/03/06 05:17:02;;;;;;;30.20;13.30;;;;;;;3.31;75.63;94621.06;4987837;28;20241;-69
2023/03/06 05:19:28;;;;;;;27.47;12.50;;;;;;;3.40;74.43;94619.25;4989671;28;20230;-69
2023/03/06 05:21:53;;;;;;;31.13;12.70;;;;;;;3.33;72.97;94621.69;4991460;28;20303;-68
2023/03/06 05:24:19;;;;;;;26.90;12.17;;;;;;;3.46;73.00;94628.97;4996343;28;20230;-69
2023/03/06 05:26:44;;;;;;;27.27;12.70;;;;;;;3.48;73.80;94631.38;5011472;28;20241;-68
2023/03/06 05:29:09;;;;;;;26.97;12.73;;;;;;;3.44;72.24;94625.72;4989248;28;20257;-68
2023/03/06 05:31:35;;;;;;;28.20;12.17;;;;;;;3.55;71.56;94625.41;4987004;28;20264;-68
2023/03/06 05:34:00;;;;;;;31.77;13.33;;;;;;;3.46;72.32;94620.41;5011177;28;20623;-68
2023/03/06 05:36:26;;;;;;;27.90;13.00;;;;;;;3.48;74.27;94624.44;5015048;28;20226;-68
2023/03/06 05:38:52;;;;;;;28.93;14.00;;;;;;;3.57;72.46;94628.63;4983873;28;20248;-68
2023/03/06 05:41:17;;;;;;;33.80;14.87;;;;;;;3.60;73.06;94623.13;5024240;28;20237;-69
2023/03/06 05:43:43;;;;;;;37.33;15.67;;;;;;;3.59;72.89;94621.50;4987122;28;20240;-68
2023/03/06 05:46:09;;;;;;;35.37;15.10;;;;;;;3.81;73.04;94625.19;5008622;28;20345;-69
2023/03/06 05:48:36;;;;;;;33.40;15.47;;;;;;;3.71;72.72;94635.72;4991859;28;20723;-69
2023/03/06 05:51:02;;;;;;;36.93;15.93;;;;;;;3.72;72.79;94639.94;4989774;28;20237;-69
2023/03/06 05:53:28;;;;;;;39.40;15.57;;;;;;;3.81;72.39;94636.34;4987328;28;20802;-69
2023/03/06 05:55:57;;;;;;;35.07;15.97;;;;;;;3.82;71.90;94639.75;4990598;28;20349;-70
2023/03/06 05:58:23;;;;;;;36.90;14.97;;;;;;;3.93;73.04;94644.56;4989345;28;20238;-71
2023/03/06 06:00:48;;;;;;;32.13;14.33;;;;;;;4.14;70.72;94644.00;5008721;28;20226;-70
2023/03/06 06:03:14;;;;;;;29.23;13.67;;;;;;;4.13;68.64;94645.81;5007129;28;20234;-69
2023/03/06 06:05:39;;;;;;;32.40;13.13;;;;;;;4.19;67.34;94644.31;4992529;28;20256;-70
2023/03/06 06:08:05;;;;;;;26.03;12.87;;;;;;;3.94;68.07;94649.56;4984989;28;20226;-70
2023/03/06 06:10:34;;;;;;;26.57;12.80;;;;;;;4.15;67.66;94651.63;4986560;28;20288;-70
2023/03/06 06:12:59;;;;;;;29.13;12.97;;;;;;;4.22;66.86;94649.16;4990784;28;20262;-69
2023/03/06 06:15:27;;;;;;;26.47;12.27;;;;;;;4.05;67.39;94659.59;5023857;28;20253;-68
2023/03/06 06:17:53;;;;;;;26.37;12.33;;;;;;;4.11;69.12;94658.09;5008119;28;20253;-69
2023/03/06 06:20:19;;;;;;;30.93;12.40;;;;;;;4.15;69.16;94661.16;4982992;28;20345;-70
2023/03/06 06:22:44;;;;;;;26.60;12.00;;;;;;;4.23;66.55;94661.16;5024792;28;20230;-70
2023/03/06 06:25:10;;;;;;;28.93;11.90;;;;;;;4.40;67.03;94668.69;5005238;28;20210;-69
2023/03/06 06:27:35;;;;;;;31.43;12.90;;;;;;;4.27;67.22;94673.59;5005525;28;20234;-69
2023/03/06 06:30:01;;;;;;;28.20;12.50;;;;;;;4.23;67.11;94672.28;5006227;28;20233;-70
2023/03/06 06:32:26;;;;;;;25.83;12.17;;;;;;;4.31;66.76;94674.06;5006110;28;20237;-68
2023/03/06 06:34:52;;;;;;;29.53;12.00;;;;;;;4.41;67.35;94669.50;5007570;28;20705;-70
2023/03/06 06:37:17;;;;;;;27.90;11.80;;;;;;;4.45;67.12;94663.00;5024722;28;20699;-78
2023/03/06 06:39:43;;;;;;;29.77;12.90;;;;;;;4.60;66.37;94669.09;5007228;28;20234;-77
2023/03/06 06:42:08;;;;;;;29.57;12.53;;;;;;;4.37;65.74;94674.19;5024384;28;20320;-77
2023/03/06 06:44:35;;;;;;;27.43;12.63;;;;;;;4.90;63.71;94670.03;4994661;28;20237;-70
2023/03/06 06:47:01;;;;;;;30.07;13.53;;;;;;;5.30;62.95;94675.00;5007914;28;20238;-70
2023/03/06 06:49:27;;;;;;;32.93;14.67;;;;;;;4.90;62.76;94680.41;4985379;28;20234;-70
2023/03/06 06:51:52;;;;;;;30.13;13.57;;;;;;;5.18;62.19;94674.56;5008170;28;20356;-70
2023/03/06 06:54:19;;;;;;;31.37;14.63;;;;;;;5.01;62.38;94691.22;4986588;28;20822;-70
2023/03/06 06:56:44;;;;;;;28.60;14.27;;;;;;;5.18;62.51;94684.94;5007197;28;20264;-70
2023/03/06 06:59:09;;;;;;;29.90;13.53;;;;;;;5.59;61.80;94688.03;5010979;28;20791;-69
2023/03/06 07:01:35;;;;;;;28.00;12.73;;;;;;;5.68;61.12;94689.63;5007642;28;20241;-70
2023/03/06 07:04:01;;;;;;;28.80;13.10;;;;;;;5.50;61.36;94701.25;5006198;28;20822;-70
2023/03/06 07:06:26;;;;;;;28.93;14.20;;;;;;;5.41;60.75;94695.34;4991173;28;20800;-71
2023/03/06 07:08:52;;;;;;;31.63;13.63;;;;;;;5.31;61.00;94684.38;5009465;28;20279;-70
2023/03/06 07:11:17;;;;;;;30.90;13.60;;;;;;;5.42;61.36;94687.38;4971682;28;20264;-70
2023/03/06 07:13:43;;;;;;;29.00;13.27;;;;;;;5.83;60.46;94684.44;4975666;28;20230;-70
2023/03/06 07:16:09;;;;;;;32.63;13.50;;;;;;;5.82;60.19;94685.44;5006067;28;20234;-70
2023/03/06 07:18:34;;;;;;;31.37;13.77;;;;;;;6.22;59.60;94686.84;4987466;28;20266;-70
2023/03/06 07:21:00;;;;;;;24.23;11.70;;;;;;;6.11;58.41;94685.50;5006342;28;20242;-69
2023/03/06 07:23:26;;;;;;;28.07;13.17;;;;;;;6.34;58.10;94680.22;4989151;28;20226;-69
2023/03/06 07:25:52;;;;;;;28.73;12.97;;;;;;;6.34;58.76;94693.22;4973759;28;20233;-69
2023/03/06 07:28:18;;;;;;;27.33;12.60;;;;;;;6.21;58.22;94693.03;4989956;28;20699;-69
2023/03/06 07:30:43;;;;;;;28.13;13.10;;;;;;;6.44;58.19;94689.38;5009284;28;20292;-70
2023/03/06 07:33:09;;;;;;;27.27;12.87;;;;;;;6.35;56.50;94687.84;5005587;28;20237;-70
2023/03/06 07:35:35;;;;;;;27.23;12.80;;;;;;;6.54;57.57;94700.28;4996086;28;20754;-68
2023/03/06 07:38:00;;;;;;;28.30;13.67;;;;;;;6.05;58.89;94691.41;4969494;28;20277;-69
2023/03/06 07:40:26;;;;;;;33.13;13.47;;;;;;;6.37;58.22;94690.25;4986131;28;20639;-69
2023/03/06 07:42:55;;;;;;;30.80;13.70;;;;;;;6.46;58.12;94690.00;4964180;28;20633;-68
2023/03/06 07:45:21;;;;;;;31.17;13.90;;;;;;;6.78;58.15;94689.59;5005609;28;20407;-68
2023/03/06 07:47:49;;;;;;;26.40;13.50;;;;;;;6.75;58.13;94687.38;4984610;28;20259;-69
2023/03/06 07:50:14;;;;;;;27.63;13.63;;;;;;;6.26;58.39;94693.31;4989621;28;20226;-68
2023/03/06 07:52:40;;;;;;;29.97;13.97;;;;;;;6.26;57.85;94706.31;4986560;28;20245;-68
2023/03/06 07:55:05;;;;;;;32.77;13.87;;;;;;;6.16;57.73;94701.38;4975344;28;20230;-69
2023/03/06 07:57:31;;;;;;;36.20;13.87;;;;;;;6.11;58.47;94695.91;5006750;28;20369;-68
2023/03/06 07:59:57;;;;;;;29.27;13.47;;;;;;;6.22;58.28;94698.03;4983610;28;20350;-70
2023/03/06 08:02:23;;;;;;;32.73;13.90;;;;;;;6.45;58.45;94692.78;5006504;28;20767;-69
2023/03/06 08:04:52;;;;;;;27.60;13.23;;;;;;;6.65;58.21;94688.63;4977918;28;20263;-69
2023/03/06 08:07:18;;;;;;;30.50;14.30;;;;;;;6.41;57.95;94694.09;4985621;28;20639;-68
2023/03/06 08:09:43;;;;;;;33.10;14.77;;;;;;;6.20;58.27;94707.00;4987585;28;20234;-70
2023/03/06 08:12:09;;;;;;;33.00;14.10;;;;;;;6.41;59.31;94699.31;4984001;28;20230;-69
2023/03/06 08:14:34;;;;;;;33.87;15.60;;;;;;;6.30;57.71;94703.16;4989739;28;20238;-68
2023/03/06 08:17:00;;;;;;;30.57;14.10;;;;;;;6.52;58.04;94699.66;4991416;28;20242;-69
2023/03/06 08:19:25;;;;;;;27.70;14.10;;;;;;;6.63;57.93;94701.00;5000424;28;20333;-69
2023/03/06 08:21:51;;;;;;;36.07;14.20;;;;;;;6.52;58.11;94701.47;5006983;28;20230;-68
2023/03/06 08:24:17;;;;;;;30.37;14.63;;;;;;;6.58;57.43;94693.75;5007637;28;20234;-68
2023/03/06 08:26:44;;;;;;;31.00;14.63;;;;;;;6.61;57.37;94690.00;4990553;28;20261;-70
2023/03/06 08:29:09;;;;;;;36.67;15.20;;;;;;;6.77;58.61;94690.59;4993079;28;20395;-69
2023/03/06 08:31:36;;;;;;;32.90;15.20;;;;;;;6.93;57.61;94681.75;5014253;28;20729;-69
2023/03/06 08:34:05;;;;;;;34.07;14.60;;;;;;;6.91;56.84;94683.75;4988194;28;20317;-69
2023/03/06 08:36:30;;;;;;;29.30;14.60;;;;;;;7.02;56.47;94691.06;4984278;28;20755;-69
2023/03/06 08:38:56;;;;;;;28.83;14.37;;;;;;;7.17;56.84;94691.03;4990570;28;20237;-68
2023/03/06 08:41:21;;;;;;;31.23;14.67;;;;;;;7.16;56.38;94689.44;4985602;28;20814;-69
2023/03/06 08:43:47;;;;;;;33.53;14.70;;;;;;;7.14;55.68;94691.41;4981730;28;20222;-69
2023/03/06 08:46:13;;;;;;;32.70;14.63;;;;;;;6.97;56.53;94685.63;4980797;28;20234;-69
2023/03/06 08:48:38;;;;;;;37.93;15.17;;;;;;;7.18;57.25;94692.66;4989845;28;20229;-69
2023/03/06 08:51:04;;;;;;;33.07;14.40;;;;;;;7.09;57.39;94688.56;4985661;28;20244;-67
2023/03/06 08:53:29;;;;;;;30.00;14.67;;;;;;;7.38;56.98;94685.84;4993204;28;20309;-70
2023/03/06 08:55:55;;;;;;;30.40;14.93;;;;;;;7.29;56.03;94685.16;5005789;28;20238;-69
2023/03/06 08:58:20;;;;;;;30.70;14.40;;;;;;;7.44;56.25;94682.50;5005244;28;20230;-69
2023/03/06 09:00:46;;;;;;;30.87;14.83;;;;;;;7.55;56.34;94684.59;4985692;28;20241;-70
2023/03/06 09:03:12;;;;;;;33.27;14.33;;;;;;;7.71;55.83;94673.94;5006927;28;20238;-69
2023/03/06 09:05:38;;;;;;;33.63;14.23;;;;;;;7.82;55.17;94672.59;4992527;28;20234;-70
2023/03/06 09:08:04;;;;;;;33.93;14.63;;;;;;;7.77;55.88;94667.16;4984903;28;21146;-70
2023/03/06 09:10:29;;;;;;;29.20;13.53;;;;;;;7.90;54.40;94677.69;4980348;28;20237;-69
2023/03/06 09:12:55;;;;;;;30.93;14.33;;;;;;;8.01;55.05;94669.34;4970606;28;20233;-69
2023/03/06 09:15:21;;;;;;;33.33;14.50;;;;;;;8.04;54.52;94676.78;4967743;28;20236;-69
2023/03/06 09:17:46;;;;;;;31.93;14.33;;;;;;;8.27;54.21;94679.97;4988017;28;20234;-69
2023/03/06 09:20:12;;;;;;;31.17;13.40;;;;;;;8.10;53.13;94671.63;4992236;28;20884;-69
2023/03/06 09:22:37;;;;;;;30.77;14.10;;;;;;;8.27;53.88;94676.56;4983148;28;20234;-69
2023/03/06 09:25:04;;;;;;;33.57;13.93;;;;;;;8.11;53.80;94675.03;4975704;28;20924;-69
2023/03/06 09:27:29;;;;;;;25.30;12.73;;;;;;;8.07;53.23;94669.38;4981337;28;20723;-69
2023/03/06 09:29:55;;;;;;;28.90;13.17;;;;;;;8.25;53.33;94668.91;4983920;28;20244;-69
2023/03/06 09:32:21;;;;;;;32.37;13.37;;;;;;;8.57;53.86;94672.75;4986049;28;20254;-69
2023/03/06 09:34:46;;;;;;;30.60;13.17;;;;;;;8.50;53.17;94672.69;4981858;28;20256;-69
2023/03/06 09:37:12;;;;;;;27.87;13.40;;;;;;;8.72;51.96;94666.38;4989675;28;20234;-69
2023/03/06 09:39:37;;;;;;;37.00;15.43;;;;;;;8.98;53.23;94667.50;4985627;28;20284;-69
2023/03/06 09:42:05;;;;;;;32.13;14.80;;;;;;;9.01;52.14;94673.13;4986073;28;20341;-69
2023/03/06 09:44:31;;;;;;;36.50;16.03;;;;;;;8.89;52.35;94672.06;4989249;28;20630;-69
2023/03/06 09:47:19;;;;;;;32.27;14.87;;;;;;;8.86;52.74;94669.84;5008412;28;20229;-71
2023/03/06 09:50:33;;;;;;;30.40;14.93;;;;;;;9.03;51.70;94665.13;5014826;28;20257;-71
2023/03/06 09:53:04;;;;;;;31.63;14.57;;;;;;;9.19;52.50;94655.13;4991611;28;20822;-69
2023/03/06 09:55:31;;;;;;;30.37;15.20;;;;;;;9.20;51.15;94656.72;5004655;28;20222;-68
2023/03/06 09:58:05;;;;;;;30.70;14.70;;;;;;;9.28;50.97;94648.72;5003368;28;20303;-72
2023/03/06 10:00:48;;;;;;;30.10;14.17;;;;;;;9.54;50.44;94642.72;5005776;28;20234;-69
2023/03/06 10:03:23;;;;;;;28.77;14.27;;;;;;;9.62;50.20;94650.38;5004755;28;20233;-69
2023/03/06 10:05:52;;;;;;;35.97;14.43;;;;;;;9.56;50.35;94639.88;5010842;28;20253;-70
2023/03/06 10:08:22;;;;;;;31.47;15.00;;;;;;;9.76;50.82;94645.94;5025119;28;20324;-69
2023/03/06 10:10:53;;;;;;;31.10;14.03;;;;;;;9.50;50.37;94652.75;5008702;28;20238;-70
2023/03/06 10:13:24;;;;;;;32.40;14.63;;;;;;;9.69;51.62;94639.91;5008888;28;20275;-69
2023/03/06 10:15:49;;;;;;;33.57;14.03;;;;;;;9.89;49.89;94641.50;4999098;28;20723;-69
2023/03/06 10:18:15;;;;;;;31.83;14.67;;;;;;;9.88;49.24;94639.91;4972784;28;20246;-69
2023/03/06 10:21:13;;;;;;;29.70;14.30;;;;;;;10.17;49.22;94633.47;4992936;28;20257;-70
2023/03/06 10:23:51;;;;;;;31.77;15.53;;;;;;;10.19;49.12;94625.41;4959590;28;20321;-70
2023/03/06 10:26:23;;;;;;;30.17;13.73;;;;;;;10.45;49.67;94628.78;4989103;28;20248;-70
2023/03/06 10:29:02;;;;;;;34.00;14.53;;;;;;;10.47;50.15;94633.78;4991297;28;20226;-70
2023/03/06 10:31:27;;;;;;;34.47;15.10;;;;;;;10.81;48.88;94628.25;5008285;28;20599;-69
2023/03/06 10:33:57;;;;;;;32.67;14.70;;;;;;;10.90;48.29;94618.34;5008058;28;20341;-68
2023/03/06 10:36:26;;;;;;;29.80;13.33;;;;;;;10.75;47.80;94618.59;5008861;28;20229;-69
2023/03/06 10:38:51;;;;;;;31.17;14.67;;;;;;;10.41;48.44;94618.94;4987291;28;20234;-69
2023/03/06 10:41:26;;;;;;;29.63;13.87;;;;;;;10.90;48.65;94619.16;4991821;28;20237;-68
2023/03/06 10:44:04;;;;;;;31.50;12.90;;;;;;;11.46;47.66;94614.00;5026455;28;20236;-69
2023/03/06 10:46:41;;;;;;;31.27;14.03;;;;;;;11.29;46.03;94608.47;5026279;28;20296;-69
2023/03/06 10:49:25;;;;;;;26.33;13.77;;;;;;;11.26;47.00;94610.69;5011961;28;20305;-70
2023/03/06 10:52:20;;;;;;;29.20;13.87;;;;;;;11.02;46.79;94607.00;5007308;28;20222;-69
2023/03/06 10:54:47;;;;;;;29.33;13.13;;;;;;;10.78;47.84;94603.28;5022467;28;20234;-69
2023/03/06 10:57:26;;;;;;;28.30;13.50;;;;;;;10.80;47.92;94597.84;5023413;28;20244;-70
2023/03/06 10:59:59;;;;;;;28.53;13.30;;;;;;;10.63;48.40;94592.28;4992913;28;20291;-69
2023/03/06 11:02:32;;;;;;;28.63;12.57;;;;;;;10.92;48.14;94584.88;4991459;28;20226;-70
2023/03/06 11:04:59;;;;;;;27.83;13.23;;;;;;;11.04;47.68;94581.41;4993688;28;20245;-70
2023/03/06 11:07:26;;;;;;;27.27;13.03;;;;;;;11.07;48.96;94578.38;4990105;28;20356;-70
2023/03/06 11:09:59;;;;;;;30.97;12.80;;;;;;;11.06;48.08;94579.38;4985511;28;20245;-69
2023/03/06 11:12:25;;;;;;;30.80;12.70;;;;;;;11.25;48.30;94569.78;5023979;28;20237;-69
2023/03/06 11:15:13;;;;;;;28.03;12.50;;;;;;;11.40;48.97;94572.91;5002567;28;20321;-69
2023/03/06 11:18:00;;;;;;;26.50;12.77;;;;;;;11.25;48.62;94575.03;5005117;28;20260;-69
2023/03/06 11:20:31;;;;;;;26.80;12.23;;;;;;;11.31;47.90;94569.75;5025177;28;20257;-70
2023/03/06 11:23:13;;;;;;;25.17;12.10;;;;;;;11.25;47.15;94564.53;5007695;28;20242;-69
2023/03/06 11:26:00;;;;;;;26.70;12.00;;;;;;;11.34;46.93;94558.84;4986633;28;20236;-69